createdAt,value
2022-08-31T00:00:35.776Z,56.87
2022-08-31T00:03:02.791Z,57.28
2022-08-31T00:05:30.731Z,56.97
2022-08-31T00:07:57.323Z,56.92
2022-08-31T00:10:32.677Z,56.72
2022-08-31T00:13:05.015Z,56.70
2022-08-31T00:15:34.642Z,56.84
2022-08-31T00:18:01.183Z,56.68
2022-08-31T00:20:33.506Z,56.71
2022-08-31T00:23:02.407Z,57.18
2022-08-31T00:25:28.965Z,57.20
2022-08-31T00:27:55.633Z,57.23
2022-08-31T00:30:22.742Z,58.00
2022-08-31T00:32:49.379Z,57.83
2022-08-31T00:35:16.917Z,57.99
2022-08-31T00:37:43.817Z,58.47
2022-08-31T00:40:12.373Z,59.24
2022-08-31T00:42:39.500Z,59.89
2022-08-31T00:45:08.438Z,60.21
2022-08-31T00:47:35.957Z,60.50
2022-08-31T00:50:06.143Z,61.59
2022-08-31T00:52:37.687Z,62.54
2022-08-31T00:55:10.325Z,62.80
2022-08-31T00:57:41.357Z,64.08
2022-08-31T01:00:11.728Z,65.20
2022-08-31T01:02:38.819Z,66.48
2022-08-31T01:05:06.432Z,66.97
2022-08-31T01:07:33.081Z,68.26
2022-08-31T01:10:00.320Z,68.28
2022-08-31T01:12:28.026Z,69.77
2022-08-31T01:14:57.327Z,70.88
2022-08-31T01:17:24.694Z,70.21
2022-08-31T01:19:58.861Z,70.99
2022-08-31T01:22:30.443Z,72.12
2022-08-31T01:24:59.435Z,72.56
2022-08-31T01:27:29.724Z,72.50
2022-08-31T01:29:59.650Z,73.83
2022-08-31T01:32:28.451Z,73.95
2022-08-31T01:34:55.063Z,73.70
2022-08-31T01:37:29.226Z,74.10
2022-08-31T01:39:56.220Z,75.33
2022-08-31T01:42:33.185Z,75.15
2022-08-31T01:45:01.168Z,75.59
2022-08-31T01:47:27.841Z,76.58
2022-08-31T01:49:57.493Z,77.17
2022-08-31T01:52:27.624Z,77.76
2022-08-31T01:54:54.934Z,78.52
2022-08-31T01:57:21.774Z,78.78
2022-08-31T02:00:30.687Z,78.37
2022-08-31T02:03:00.216Z,78.31
2022-08-31T02:05:27.202Z,78.14
2022-08-31T02:07:54.213Z,78.07
2022-08-31T02:10:20.949Z,78.28
2022-08-31T02:12:47.650Z,78.77
2022-08-31T02:15:14.293Z,78.92
2022-08-31T02:17:42.388Z,79.33
2022-08-31T02:20:12.825Z,79.27
2022-08-31T02:22:39.521Z,79.48
2022-08-31T02:25:08.574Z,79.49
2022-08-31T02:27:37.576Z,79.45
2022-08-31T02:30:09.439Z,79.72
2022-08-31T02:32:36.132Z,80.14
2022-08-31T02:35:05.281Z,80.07
2022-08-31T02:37:32.072Z,80.22
2022-08-31T02:39:59.446Z,80.73
2022-08-31T02:42:30.015Z,81.20
2022-08-31T02:45:00.334Z,81.73
2022-08-31T02:47:27.089Z,81.91
2022-08-31T02:50:21.224Z,82.47
2022-08-31T02:52:48.008Z,83.27
2022-08-31T02:55:14.694Z,84.05
2022-08-31T02:57:41.510Z,84.51
2022-08-31T03:00:10.554Z,84.91
2022-08-31T03:02:37.522Z,84.42
2022-08-31T03:05:05.191Z,83.92
2022-08-31T03:07:33.284Z,83.86
2022-08-31T03:09:59.824Z,83.80
2022-08-31T03:12:26.909Z,84.09
2022-08-31T03:14:55.984Z,84.70
2022-08-31T03:17:23.451Z,85.41
2022-08-31T03:19:50.070Z,85.38
2022-08-31T03:22:16.738Z,85.19
2022-08-31T03:24:45.154Z,85.23
2022-08-31T03:27:11.955Z,85.18
2022-08-31T03:29:38.629Z,85.08
2022-08-31T03:32:17.419Z,84.89
2022-08-31T03:34:46.963Z,84.60
2022-08-31T03:37:13.969Z,84.64
2022-08-31T03:39:40.637Z,85.26
2022-08-31T03:42:08.579Z,86.08
2022-08-31T03:44:35.381Z,86.37
2022-08-31T03:47:02.046Z,85.92
2022-08-31T03:49:28.673Z,85.73
2022-08-31T03:52:08.953Z,85.30
2022-08-31T03:54:43.896Z,85.34
2022-08-31T03:57:13.031Z,84.24
2022-08-31T03:59:39.613Z,83.88
2022-08-31T04:02:37.404Z,84.27
2022-08-31T04:05:33.025Z,84.32
2022-08-31T04:08:12.473Z,84.34
2022-08-31T04:10:47.093Z,84.91
2022-08-31T04:13:34.001Z,85.19
2022-08-31T04:16:21.812Z,85.34
2022-08-31T04:19:08.013Z,85.76
2022-08-31T04:21:40.211Z,85.71
2022-08-31T04:24:11.587Z,85.85
2022-08-31T04:26:38.470Z,86.06
2022-08-31T04:29:12.862Z,86.18
2022-08-31T04:31:40.551Z,86.42
2022-08-31T04:34:07.167Z,86.92
2022-08-31T04:36:33.752Z,87.10
2022-08-31T04:39:02.202Z,87.25
2022-08-31T04:41:31.709Z,87.38
2022-08-31T04:44:00.451Z,87.70
2022-08-31T04:46:28.756Z,87.68
2022-08-31T04:48:55.645Z,87.71
2022-08-31T04:51:24.807Z,87.68
2022-08-31T04:53:52.541Z,87.82
2022-08-31T04:56:21.415Z,87.68
2022-08-31T04:58:51.443Z,87.69
2022-08-31T05:01:21.307Z,87.61
2022-08-31T05:04:13.826Z,87.41
2022-08-31T05:06:44.130Z,87.28
2022-08-31T05:09:15.564Z,86.93
2022-08-31T05:11:47.028Z,86.85
2022-08-31T05:14:13.669Z,86.62
2022-08-31T05:16:44.718Z,86.80
2022-08-31T05:19:13.451Z,86.60
2022-08-31T05:21:42.071Z,86.77
2022-08-31T05:24:11.943Z,86.82
2022-08-31T05:26:42.537Z,87.08
2022-08-31T05:29:11.023Z,86.98
2022-08-31T05:31:38.518Z,86.81
2022-08-31T05:34:06.529Z,86.91
2022-08-31T05:36:38.921Z,86.92
2022-08-31T05:39:06.649Z,86.95
2022-08-31T05:41:33.198Z,87.10
2022-08-31T05:44:01.938Z,87.20
2022-08-31T05:46:29.851Z,87.12
2022-08-31T05:48:57.150Z,86.97
2022-08-31T05:51:24.155Z,87.27
2022-08-31T05:53:52.428Z,87.27
2022-08-31T05:56:23.303Z,86.82
2022-08-31T05:58:53.225Z,86.63
2022-08-31T06:01:22.517Z,86.64
2022-08-31T06:04:08.842Z,86.56
2022-08-31T06:06:35.912Z,86.69
2022-08-31T06:09:05.685Z,86.71
2022-08-31T06:11:32.858Z,86.61
2022-08-31T06:14:01.703Z,86.46
2022-08-31T06:16:29.895Z,86.44
2022-08-31T06:18:57.383Z,86.47
2022-08-31T06:21:27.502Z,86.32
2022-08-31T06:23:55.591Z,86.66
2022-08-31T06:26:26.366Z,86.78
2022-08-31T06:28:55.521Z,87.06
2022-08-31T06:31:25.258Z,86.64
2022-08-31T06:33:52.703Z,86.51
2022-08-31T06:36:39.294Z,86.21
2022-08-31T06:39:18.508Z,86.05
2022-08-31T06:41:52.681Z,86.25
2022-08-31T06:44:39.848Z,86.26
2022-08-31T06:47:14.727Z,86.33
2022-08-31T06:49:41.865Z,86.65
2022-08-31T06:52:08.599Z,86.71
2022-08-31T06:54:38.550Z,86.80
2022-08-31T06:57:41.307Z,86.91
2022-08-31T07:00:36.487Z,86.91
2022-08-31T07:03:20.711Z,87.07
2022-08-31T07:05:47.402Z,86.90
2022-08-31T07:08:14.098Z,86.87
2022-08-31T07:10:40.780Z,86.68
2022-08-31T07:13:08.775Z,86.62
2022-08-31T07:15:35.737Z,86.88
2022-08-31T07:18:04.410Z,86.67
2022-08-31T07:20:33.997Z,86.39
2022-08-31T07:23:00.942Z,86.51
2022-08-31T07:25:32.233Z,86.29
2022-08-31T07:28:00.003Z,86.42
2022-08-31T07:30:29.015Z,86.46
2022-08-31T07:33:00.959Z,86.18
2022-08-31T07:35:27.567Z,85.61
2022-08-31T07:38:05.686Z,85.12
2022-08-31T07:40:35.137Z,84.84
2022-08-31T07:43:03.067Z,84.41
2022-08-31T07:45:37.128Z,84.03
2022-08-31T07:48:06.839Z,83.65
2022-08-31T07:50:54.362Z,83.35
2022-08-31T07:53:42.927Z,83.44
2022-08-31T07:56:23.641Z,82.68
2022-08-31T07:58:58.221Z,82.02
2022-08-31T08:01:26.838Z,81.55
2022-08-31T08:03:53.821Z,78.44
2022-08-31T08:06:52.593Z,77.48
2022-08-31T08:09:45.369Z,76.89
2022-08-31T08:12:22.578Z,76.92
2022-08-31T08:15:09.933Z,77.50
2022-08-31T08:17:57.177Z,76.66
2022-08-31T08:20:37.801Z,73.71
2022-08-31T08:23:18.549Z,74.13
2022-08-31T08:26:21.190Z,74.46
2022-08-31T08:29:07.055Z,73.88
2022-08-31T08:31:37.952Z,72.46
2022-08-31T08:34:06.317Z,71.07
2022-08-31T08:36:36.101Z,71.46
2022-08-31T08:39:04.935Z,68.72
2022-08-31T08:41:34.329Z,67.78
2022-08-31T08:44:04.941Z,68.58
2022-08-31T08:46:38.988Z,67.28
2022-08-31T08:49:18.539Z,66.04
2022-08-31T08:51:50.864Z,62.67
2022-08-31T08:54:28.398Z,63.51
2022-08-31T08:56:55.796Z,63.61
2022-08-31T08:59:22.690Z,62.17
2022-08-31T09:01:52.969Z,62.20
2022-08-31T09:04:38.153Z,62.49
2022-08-31T09:07:30.212Z,62.42
2022-08-31T09:10:05.378Z,62.18
2022-08-31T09:12:41.312Z,60.46
2022-08-31T09:15:26.516Z,59.77
2022-08-31T09:18:03.263Z,60.71
2022-08-31T09:20:31.391Z,58.95
2022-08-31T09:22:57.945Z,58.11
2022-08-31T09:25:28.728Z,58.29
2022-08-31T09:28:09.165Z,57.97
2022-08-31T09:30:46.394Z,58.40
2022-08-31T09:33:17.997Z,58.79
2022-08-31T09:35:46.702Z,58.42
2022-08-31T09:38:27.092Z,58.83
2022-08-31T09:40:53.853Z,58.54
2022-08-31T09:43:30.990Z,58.27
2022-08-31T09:46:04.026Z,57.48
2022-08-31T09:48:42.725Z,56.04
2022-08-31T09:51:21.513Z,55.57
2022-08-31T09:53:48.311Z,56.73
2022-08-31T09:56:16.935Z,54.90
2022-08-31T09:58:46.581Z,54.33
2022-08-31T10:01:18.002Z,54.63
2022-08-31T10:03:45.102Z,53.94
2022-08-31T10:06:27.851Z,53.82
2022-08-31T10:08:59.759Z,53.82
2022-08-31T10:11:30.930Z,53.90
2022-08-31T10:14:02.574Z,54.23
2022-08-31T10:16:34.859Z,53.61
2022-08-31T10:19:05.399Z,53.86
2022-08-31T10:21:42.136Z,53.71
2022-08-31T10:24:17.486Z,53.28
2022-08-31T10:26:48.342Z,53.01
2022-08-31T10:29:23.513Z,53.23
2022-08-31T10:31:54.843Z,52.18
2022-08-31T10:34:27.786Z,52.36
2022-08-31T10:37:00.897Z,52.96
2022-08-31T10:39:32.951Z,52.93
2022-08-31T10:42:02.831Z,52.81
2022-08-31T10:44:35.022Z,52.68
2022-08-31T10:47:01.844Z,51.31
2022-08-31T10:49:29.698Z,51.79
2022-08-31T10:52:03.639Z,51.97
2022-08-31T10:54:41.542Z,50.94
2022-08-31T10:57:21.524Z,51.20
2022-08-31T10:59:58.277Z,51.27
2022-08-31T11:02:42.904Z,49.58
2022-08-31T11:05:32.565Z,51.11
2022-08-31T11:08:12.658Z,50.00
2022-08-31T11:10:47.411Z,50.65
2022-08-31T11:13:26.589Z,51.00
2022-08-31T11:16:08.733Z,51.20
2022-08-31T11:19:10.902Z,49.06
2022-08-31T11:22:14.872Z,49.40
2022-08-31T11:25:08.130Z,50.12
2022-08-31T11:27:37.982Z,50.28
2022-08-31T11:30:12.262Z,50.48
2022-08-31T11:32:43.126Z,50.86
2022-08-31T11:35:09.976Z,50.98
2022-08-31T11:37:56.234Z,49.98
2022-08-31T11:40:57.931Z,50.19
2022-08-31T11:43:57.517Z,50.51
2022-08-31T11:47:01.308Z,49.67
2022-08-31T11:49:45.283Z,48.66
2022-08-31T11:52:24.311Z,48.73
2022-08-31T11:55:03.031Z,48.68
2022-08-31T11:57:37.471Z,48.75
2022-08-31T12:00:19.031Z,49.58
2022-08-31T12:02:45.902Z,48.49
2022-08-31T12:05:12.620Z,48.82
2022-08-31T12:07:42.565Z,47.67
2022-08-31T12:10:33.001Z,47.50
2022-08-31T12:13:16.675Z,47.29
2022-08-31T12:16:08.797Z,46.86
2022-08-31T12:19:11.174Z,46.36
2022-08-31T12:21:46.259Z,46.72
2022-08-31T12:24:28.141Z,46.85
2022-08-31T12:27:12.774Z,47.55
2022-08-31T12:29:41.529Z,46.67
2022-08-31T12:32:16.686Z,46.24
2022-08-31T12:34:48.844Z,45.38
2022-08-31T12:37:23.847Z,45.72
2022-08-31T12:40:06.599Z,44.86
2022-08-31T12:42:35.613Z,45.02
2022-08-31T12:45:04.728Z,42.87
2022-08-31T12:47:37.543Z,43.28
2022-08-31T12:50:13.832Z,42.80
2022-08-31T12:53:05.614Z,42.25
2022-08-31T12:55:42.370Z,40.90
2022-08-31T12:58:25.659Z,40.94
2022-08-31T13:01:08.681Z,41.39
2022-08-31T13:03:39.974Z,41.22
2022-08-31T13:06:09.237Z,40.90
2022-08-31T13:08:38.876Z,41.89
2022-08-31T13:11:33.136Z,40.42
2022-08-31T13:14:13.026Z,40.68
2022-08-31T13:16:43.834Z,41.20
2022-08-31T13:19:17.473Z,41.71
2022-08-31T13:21:49.330Z,41.99
2022-08-31T13:24:16.008Z,41.66
2022-08-31T13:26:42.576Z,42.05
2022-08-31T13:29:12.146Z,41.43
2022-08-31T13:31:49.948Z,40.49
2022-08-31T13:34:16.838Z,38.88
2022-08-31T13:36:49.139Z,39.04
2022-08-31T13:39:25.651Z,38.52
2022-08-31T13:41:57.377Z,38.36
2022-08-31T13:44:26.086Z,38.65
2022-08-31T13:46:58.767Z,38.97
2022-08-31T13:49:29.798Z,38.60
2022-08-31T13:51:56.863Z,37.85
2022-08-31T13:54:28.761Z,36.34
2022-08-31T13:56:55.390Z,37.50
2022-08-31T13:59:28.813Z,36.50
2022-08-31T14:01:59.416Z,36.55
2022-08-31T14:04:36.845Z,35.95
2022-08-31T14:07:03.466Z,36.46
2022-08-31T14:09:30.407Z,35.15
2022-08-31T14:11:57.370Z,34.06
2022-08-31T14:14:24.369Z,34.24
2022-08-31T14:16:58.397Z,34.04
2022-08-31T14:19:32.793Z,33.19
2022-08-31T14:22:14.634Z,34.49
2022-08-31T14:24:41.270Z,34.29
2022-08-31T14:27:07.829Z,33.69
2022-08-31T14:29:34.442Z,33.48
2022-08-31T14:32:02.729Z,33.98
2022-08-31T14:34:30.513Z,33.26
2022-08-31T14:36:59.150Z,33.49
2022-08-31T14:39:30.009Z,33.98
2022-08-31T14:41:57.703Z,34.13
2022-08-31T14:44:27.902Z,33.60
2022-08-31T14:46:54.582Z,32.60
2022-08-31T14:49:22.547Z,33.35
2022-08-31T14:51:49.539Z,34.98
2022-08-31T14:54:16.336Z,34.94
2022-08-31T14:56:46.633Z,34.94
2022-08-31T14:59:16.712Z,35.02
2022-08-31T15:01:44.531Z,34.36
2022-08-31T15:04:12.579Z,34.42
2022-08-31T15:06:41.426Z,35.00
2022-08-31T15:09:08.296Z,35.75
2022-08-31T15:11:36.425Z,35.40
2022-08-31T15:14:07.385Z,35.55
2022-08-31T15:16:33.951Z,36.17
2022-08-31T15:19:00.537Z,36.79
2022-08-31T15:21:27.533Z,37.21
2022-08-31T15:23:55.467Z,37.20
2022-08-31T15:26:23.308Z,37.81
2022-08-31T15:28:49.880Z,38.08
2022-08-31T15:31:20.840Z,37.89
2022-08-31T15:33:51.521Z,39.30
2022-08-31T15:36:18.641Z,35.96
2022-08-31T15:38:45.829Z,35.90
2022-08-31T15:41:13.934Z,35.06
2022-08-31T15:43:40.545Z,35.71
2022-08-31T15:46:10.994Z,36.93
2022-08-31T15:48:41.055Z,35.39
2022-08-31T15:51:15.720Z,34.99
2022-08-31T15:53:42.471Z,33.67
2022-08-31T15:56:09.419Z,33.04
2022-08-31T15:58:37.937Z,32.93
2022-08-31T16:01:05.834Z,32.71
2022-08-31T16:03:35.202Z,33.48
2022-08-31T16:06:02.486Z,33.36
2022-08-31T16:08:29.152Z,31.99
2022-08-31T16:10:55.820Z,31.59
2022-08-31T16:13:22.529Z,31.20
2022-08-31T16:15:52.414Z,31.34
2022-08-31T16:18:20.613Z,30.37
2022-08-31T16:20:48.607Z,31.21
2022-08-31T16:23:16.082Z,30.75
2022-08-31T16:25:47.931Z,30.75
2022-08-31T16:28:16.942Z,32.58
2022-08-31T16:30:43.925Z,33.45
2022-08-31T16:33:12.399Z,33.20
2022-08-31T16:35:39.509Z,33.46
2022-08-31T16:38:06.706Z,35.33
2022-08-31T16:40:33.726Z,35.69
2022-08-31T16:43:00.559Z,35.71
2022-08-31T16:45:27.498Z,36.32
2022-08-31T16:47:54.499Z,37.28
2022-08-31T16:50:22.608Z,37.16
2022-08-31T16:52:49.367Z,38.14
2022-08-31T16:55:16.223Z,38.44
2022-08-31T16:57:43.045Z,37.70
2022-08-31T17:00:11.548Z,38.86
2022-08-31T17:02:38.470Z,40.13
2022-08-31T17:05:06.243Z,40.73
2022-08-31T17:07:34.330Z,41.16
2022-08-31T17:10:01.322Z,41.79
2022-08-31T17:12:28.223Z,42.97
2022-08-31T17:14:54.993Z,43.59
2022-08-31T17:17:23.842Z,44.05
2022-08-31T17:19:52.950Z,44.34
2022-08-31T17:22:25.826Z,44.80
2022-08-31T17:24:57.007Z,45.88
2022-08-31T17:27:25.659Z,47.12
2022-08-31T17:29:53.660Z,46.40
2022-08-31T17:32:22.179Z,46.71
2022-08-31T17:34:49.710Z,47.27
2022-08-31T17:37:17.717Z,47.81
2022-08-31T17:39:45.970Z,48.02
2022-08-31T17:42:14.215Z,49.48
2022-08-31T17:44:41.648Z,50.11
2022-08-31T17:47:08.481Z,50.78
2022-08-31T17:49:37.728Z,49.82
2022-08-31T17:52:05.788Z,49.94
2022-08-31T17:54:32.886Z,50.36
2022-08-31T17:57:01.801Z,49.83
2022-08-31T17:59:32.577Z,50.56
2022-08-31T18:02:01.370Z,51.54
2022-08-31T18:04:29.191Z,51.99
2022-08-31T18:06:56.718Z,52.62
2022-08-31T18:09:25.622Z,52.28
2022-08-31T18:11:52.984Z,52.46
2022-08-31T18:14:22.000Z,52.48
2022-08-31T18:16:51.888Z,52.12
2022-08-31T18:19:27.916Z,52.38
2022-08-31T18:21:56.306Z,53.06
2022-08-31T18:24:23.788Z,53.33
2022-08-31T18:26:52.401Z,54.02
2022-08-31T18:29:24.299Z,54.74
2022-08-31T18:31:53.051Z,54.90
2022-08-31T18:34:21.763Z,55.33
2022-08-31T18:36:49.596Z,55.67
2022-08-31T18:39:29.673Z,55.49
2022-08-31T18:42:05.588Z,55.54
2022-08-31T18:44:32.749Z,56.16
2022-08-31T18:47:03.158Z,55.98
2022-08-31T18:49:30.165Z,55.64
2022-08-31T18:51:57.413Z,55.50
2022-08-31T18:54:24.634Z,55.42
2022-08-31T18:56:51.380Z,56.00
2022-08-31T18:59:20.741Z,56.65
2022-08-31T19:01:48.154Z,56.70
2022-08-31T19:04:21.954Z,56.82
2022-08-31T19:06:51.484Z,56.74
2022-08-31T19:09:19.185Z,57.31
2022-08-31T19:11:46.076Z,57.66
2022-08-31T19:14:13.083Z,57.88
2022-08-31T19:16:41.859Z,58.68
2022-08-31T19:19:09.916Z,58.41
2022-08-31T19:21:39.144Z,58.29
2022-08-31T19:24:10.635Z,58.51
2022-08-31T19:26:44.126Z,57.94
2022-08-31T19:29:13.337Z,58.14
2022-08-31T19:31:45.053Z,58.25
2022-08-31T19:34:14.343Z,59.12
2022-08-31T19:36:45.146Z,59.11
2022-08-31T19:39:14.746Z,59.16
2022-08-31T19:41:49.208Z,58.97
2022-08-31T19:44:17.640Z,58.71
2022-08-31T19:46:52.521Z,58.70
2022-08-31T19:49:20.128Z,59.17
2022-08-31T19:51:50.345Z,60.27
2022-08-31T19:54:19.024Z,60.85
2022-08-31T19:56:46.560Z,61.19
2022-08-31T19:59:16.470Z,61.84
2022-08-31T20:01:44.144Z,62.41
2022-08-31T20:04:16.286Z,62.09
2022-08-31T20:06:44.027Z,62.02
2022-08-31T20:09:13.708Z,62.32
2022-08-31T20:11:40.780Z,62.46
2022-08-31T20:14:07.919Z,62.81
2022-08-31T20:16:37.489Z,63.18
2022-08-31T20:19:04.491Z,63.43
2022-08-31T20:21:33.969Z,64.09
2022-08-31T20:24:04.210Z,64.63
2022-08-31T20:26:36.419Z,65.49
2022-08-31T20:29:07.557Z,65.17
2022-08-31T20:31:37.973Z,65.60
2022-08-31T20:34:05.631Z,65.94
2022-08-31T20:36:34.369Z,66.01
2022-08-31T20:39:03.625Z,65.47
2022-08-31T20:41:34.897Z,65.35
2022-08-31T20:44:03.065Z,65.23
2022-08-31T20:46:29.673Z,65.37
2022-08-31T20:48:56.555Z,65.61
2022-08-31T20:51:23.121Z,66.37
2022-08-31T20:53:50.160Z,66.77
2022-08-31T20:56:17.949Z,66.92
2022-08-31T20:58:46.702Z,66.99
2022-08-31T21:01:14.157Z,67.47
2022-08-31T21:03:41.700Z,67.42
2022-08-31T21:06:10.528Z,67.47
2022-08-31T21:08:38.993Z,67.41
2022-08-31T21:11:13.081Z,67.29
2022-08-31T21:13:41.239Z,67.99
2022-08-31T21:16:09.696Z,68.24
2022-08-31T21:18:36.504Z,68.25
2022-08-31T21:21:04.538Z,68.14
2022-08-31T21:23:31.470Z,68.68
2022-08-31T21:25:58.838Z,68.56
2022-08-31T21:28:26.215Z,69.05
2022-08-31T21:31:02.867Z,69.28
2022-08-31T21:33:33.512Z,69.65
2022-08-31T21:36:05.367Z,69.79
2022-08-31T21:38:32.643Z,69.79
2022-08-31T21:40:59.812Z,69.93
2022-08-31T21:43:26.749Z,69.86
2022-08-31T21:46:01.056Z,70.31
2022-08-31T21:48:28.144Z,70.09
2022-08-31T21:50:56.559Z,70.53
2022-08-31T21:53:24.017Z,71.16
2022-08-31T21:55:50.825Z,71.71
2022-08-31T21:58:17.590Z,71.65
2022-08-31T22:00:44.181Z,71.82
2022-08-31T22:03:11.418Z,72.27
2022-08-31T22:05:38.829Z,72.42
2022-08-31T22:08:07.326Z,72.59
2022-08-31T22:10:37.908Z,72.35
2022-08-31T22:13:04.920Z,72.57
2022-08-31T22:15:31.516Z,72.56
2022-08-31T22:18:26.318Z,72.52
2022-08-31T22:20:45.051Z,72.70
2022-08-31T22:23:13.206Z,72.51
2022-08-31T22:25:39.888Z,72.85
2022-08-31T22:28:07.067Z,73.37
2022-08-31T22:30:34.613Z,73.39
2022-08-31T22:33:01.375Z,74.16
2022-08-31T22:35:28.047Z,73.52
2022-08-31T22:37:54.623Z,74.04
2022-08-31T22:40:22.762Z,74.11
2022-08-31T22:42:49.659Z,74.04
2022-08-31T22:45:17.365Z,74.49
2022-08-31T22:47:49.785Z,74.96
2022-08-31T22:50:17.334Z,74.86
2022-08-31T22:52:43.892Z,75.33
2022-08-31T22:55:10.547Z,75.20
2022-08-31T22:57:38.515Z,75.39
2022-08-31T23:00:07.442Z,75.98
2022-08-31T23:02:33.992Z,76.04
2022-08-31T23:05:00.607Z,76.12
2022-08-31T23:07:27.143Z,76.17
2022-08-31T23:09:53.785Z,76.90
2022-08-31T23:12:20.560Z,76.53
2022-08-31T23:14:48.477Z,76.48
2022-08-31T23:17:15.011Z,76.77
2022-08-31T23:19:42.427Z,76.48
2022-08-31T23:22:11.572Z,76.72
2022-08-31T23:24:40.863Z,76.95
2022-08-31T23:27:09.249Z,77.00
2022-08-31T23:29:38.025Z,77.13
2022-08-31T23:32:06.174Z,77.39
2022-08-31T23:34:33.014Z,77.72
2022-08-31T23:36:59.585Z,77.85
2022-08-31T23:39:26.242Z,77.77
2022-08-31T23:41:53.117Z,78.30
2022-08-31T23:44:20.920Z,78.40
2022-08-31T23:46:48.371Z,78.46
2022-08-31T23:49:18.638Z,78.91
2022-08-31T23:51:46.062Z,78.97
2022-08-31T23:54:13.001Z,78.84
2022-08-31T23:56:41.534Z,79.28
2022-08-31T23:59:10.349Z,79.60
